Airfield :
LOGIN :

Register | Disclaimer

   EN    FR    IT 

 










Legend :    VFR   Marginal VFR   IFR   Intensive IFR   Very Intensive IFR
Visi :
Ceiling :
>= 8 km
>= 3000ft
5 to 8 km
1000 to 3000 ft
1500m to 5 km
500 to 1000 ft
800 to 1500m
200 to 500 ft
< 800m
< 200 ft
Symbols :   Thunderstorms  Fog  Heavy snow  Heavy precipitations  Wind > 20 kt
SIGMETs :     Misc.  Thunderstorms  Icing  Turbulence  Mountain Waves  Volcanic Ashes







- Airport Elevation : 51 ft
- IATA code : GWT


EDXW - Westerland-Sylt Island

CURRENT METAR :
  • 220650Z 20010KT 9999 -DZ NSC 16/16 Q1020

EXPIRED METARs :
  • 220620Z 20008KT 9999 -RADZ NSC 16/15 Q1020
  • 220550Z 20008KT 9999 -RA NSC 16/15 Q1020
  • 220520Z 20007KT CAVOK 16/15 Q1020
  • 220450Z 20006KT CAVOK 16/15 Q1020

TAF TAF EDXW
Valid from the 22 at 06:00 until the 22 at 15:00 UTC


220545Z 2206/2215 20008KT 9999 SCT040
BECMG 2206/2209 21013KT
TEMPO 2209/2215 21020KT
TEMPO 2211/2215 BKN014
PROB30
TEMPO 2211/2215 4500 -RA BKN009
No reported NOTAMs for that airfield.



MET'MAP, your aeronautical weather chart ! - Copyright ORBIFLY December 2007 - Disclaimer

ORBIFLY MET'MAP TEAM :

Programming & Development : Alexandra Zaïnal
Concept & Development : Baudouin d'Aumeries
Co-Development & Prog : Marc-Olivier Méhu
Technical & hardware support : Manuel Goepfert

Contact : metmap@orbifly.com




SOURCES & CREDITS :

   NOAA